メインページ
METAR-TAF:

METAR-TAF

空港 :

カイロ, エジプト

カイロ国際空港

緯度: 30-08N, 経度: 031-24E, 海抜: 64m

現時点の気象観測

当レポートは10分前の14:30(UTC)に作成
北/北西の風 12kt
気温 37°C
湿度 21%
気圧 1005 hPa
視程10km以上
1,500メートル以下は雲なし、積乱雲なし

METAR: HECA 261430Z 33012KT CAVOK 37/11 Q1005 NOSIG

時間: 16:40 (14:40 UTC)

予報

当レポートは3時間40分前の11:00(UTC)に作成
予報は26日の 12時(UTC)から 27日の 18時(UTC)まで有効
の風 8kt
視程10km以上
高度2500ftの雲は散在している
26日の 16時(UTC)から 26日の 20時(UTC)まで一時的に
の風 8kt、最大18ktの突風を伴う
27日の 00時(UTC)から 27日の 08時(UTC)まで一時的に
視程: 4000m
高度2500ftの千切れ雲あり
確率 40% :
27日の 03時(UTC)から 27日の 06時(UTC)まで一時的に
変向風 3kt
視程: 2000m
27日の 10時(UTC)から 27日の 18時(UTC)まで一時的に
の風 12kt、最大22ktの突風を伴う

TAF: HECA 261100Z 2612/2718 35008KT 9999 SCT025 TEMPO 2616/2620 01008G18KT TEMPO 2700/2708 4000 BR BKN025 PROB40 TEMPO 2703/2706 VRB03KT 2000 NSC TEMPO 2710/2718 36012G22KT

4,000以上の空港の気象観測と天気予報(METAR報とTAF報)

利用可能な観測所は地図上に黄色い丸と赤い丸で示す。

丸の上にカーソルを重ねると観測所名を参照できる。

次にクリックすると気象観測と天気予報を参照できる。

マップの切り替え:黒色「×」印の緑ボタンをクリックして拡大、「-」印の緑ボタンをクリックして縮小、緑色の三角印をクリックして隣りの地図に切り替え


METAR-TAF: